Time;durP1;ratioP1;P1;durP2;ratioP2;P2;SDS_P1;SDS_P2;PMS_P1;PMS_P2;Temp;Humidity;BMP_temperature;BMP_pressure;BME280_temperature;BME280_humidity;BME280_pressure;Samples;Min_cycle;Max_cycle;Signal;HPM_P1;HPM_P2
2024/01/17 00:00:35;;;;;;;0.00;0.00;;;;;;;-4.10;100.00;145272.53;4985616;28;20250;-64
2024/01/17 00:03:01;;;;;;;0.00;0.00;;;;;;;-4.14;100.00;145262.66;4982642;28;20234;-64
2024/01/17 00:05:28;;;;;;;0.00;0.00;;;;;;;-4.11;100.00;145270.06;4976562;28;20223;-64
2024/01/17 00:07:55;;;;;;;0.00;0.00;;;;;;;-4.10;100.00;145271.31;4964440;28;20236;-64
2024/01/17 00:10:22;;;;;;;0.03;0.03;;;;;;;-4.09;100.00;145273.78;4957595;28;20242;-64
2024/01/17 00:12:50;;;;;;;0.00;0.00;;;;;;;-4.08;100.00;145276.25;4985388;28;20220;-64
2024/01/17 00:15:18;;;;;;;0.00;0.00;;;;;;;-4.05;100.00;145284.84;4982664;28;20242;-64
2024/01/17 00:17:46;;;;;;;0.00;0.00;;;;;;;-4.00;100.00;145295.97;4973205;28;20225;-64
2024/01/17 00:20:13;;;;;;;0.00;0.00;;;;;;;-3.93;100.00;145313.22;4981100;28;20604;-64
2024/01/17 00:22:40;;;;;;;0.00;0.00;;;;;;;-3.92;100.00;145314.41;4985844;28;20246;-65
2024/01/17 00:25:08;;;;;;;0.00;0.00;;;;;;;-3.89;100.00;145321.81;4983137;28;20230;-64
2024/01/17 00:27:36;;;;;;;0.00;0.00;;;;;;;-3.82;100.00;145337.84;4985658;28;20595;-64
2024/01/17 00:30:06;;;;;;;0.00;0.00;;;;;;;-3.72;100.00;145363.72;4983497;28;20233;-64
2024/01/17 00:32:34;;;;;;;0.00;0.00;;;;;;;-3.71;100.00;145364.97;4977307;28;20226;-64
2024/01/17 00:35:01;;;;;;;0.00;0.00;;;;;;;-3.67;100.00;145373.59;4962870;28;20230;-64
2024/01/17 00:37:27;;;;;;;0.00;0.00;;;;;;;-3.69;100.00;145368.66;4957107;28;20229;-64
2024/01/17 00:39:54;;;;;;;0.00;0.00;;;;;;;-3.65;100.00;145378.50;4967792;28;20303;-64
2024/01/17 00:42:20;;;;;;;0.00;0.00;;;;;;;-3.60;100.00;145390.84;4959159;28;20235;-64
2024/01/17 00:44:46;;;;;;;0.00;0.00;;;;;;;-3.55;100.00;145403.16;4986333;28;20290;-64
2024/01/17 00:47:14;;;;;;;0.00;0.00;;;;;;;-3.53;100.00;145408.09;4983564;28;20232;-64
2024/01/17 00:49:41;;;;;;;0.00;0.00;;;;;;;-3.46;100.00;145424.09;4984841;28;20224;-64
2024/01/17 00:52:08;;;;;;;0.00;0.00;;;;;;;-3.40;100.00;145438.91;4982752;28;20224;-64
2024/01/17 00:54:34;;;;;;;0.00;0.00;;;;;;;-3.35;100.00;145451.22;4985480;28;20231;-64
2024/01/17 00:57:01;;;;;;;0.00;0.00;;;;;;;-3.32;100.00;145458.63;4983020;28;20227;-64
2024/01/17 00:59:27;;;;;;;0.00;0.00;;;;;;;-3.29;100.00;145466.03;4984143;28;20724;-64
2024/01/17 01:01:54;;;;;;;0.00;0.00;;;;;;;-3.24;100.00;145475.88;4983132;28;20223;-64
2024/01/17 01:04:22;;;;;;;0.00;0.00;;;;;;;-3.20;100.00;145487.00;4971800;28;20638;-64
2024/01/17 01:06:48;;;;;;;0.00;0.00;;;;;;;-3.14;100.00;145501.75;4958455;28;20235;-64
2024/01/17 01:09:16;;;;;;;0.00;0.00;;;;;;;-3.07;100.00;145516.56;4950299;28;20516;-64
2024/01/17 01:11:43;;;;;;;0.00;0.00;;;;;;;-3.00;100.00;145535.09;4979585;28;20223;-64
2024/01/17 01:14:09;;;;;;;0.00;0.00;;;;;;;-2.96;100.00;145543.69;4983071;28;20239;-64
2024/01/17 01:16:36;;;;;;;0.00;0.00;;;;;;;-2.92;100.00;145552.34;4984627;28;20223;-64
2024/01/17 01:19:04;;;;;;;0.00;0.00;;;;;;;-2.89;100.00;145559.75;4982358;28;20770;-64
2024/01/17 01:21:32;;;;;;;0.00;0.00;;;;;;;-2.84;100.00;145572.09;4984265;28;20239;-64
2024/01/17 01:23:58;;;;;;;0.00;0.00;;;;;;;-2.84;100.00;145573.28;4981875;28;20232;-64
2024/01/17 01:26:25;;;;;;;0.00;0.00;;;;;;;-2.80;100.00;145580.69;4984493;28;20591;-64
2024/01/17 01:28:52;;;;;;;0.00;0.00;;;;;;;-2.79;100.00;145583.16;4985114;28;20298;-64
2024/01/17 01:31:18;;;;;;;0.00;0.00;;;;;;;-2.72;100.00;145600.44;4953488;28;20268;-65
2024/01/17 01:33:47;;;;;;;0.00;0.00;;;;;;;-2.68;100.00;145610.31;4969083;28;20231;-64
2024/01/17 01:36:14;;;;;;;0.00;0.00;;;;;;;-2.61;100.00;145626.31;4938327;28;20225;-64
2024/01/17 01:38:42;;;;;;;0.00;0.00;;;;;;;-2.58;100.00;145633.72;4957016;28;20251;-64
2024/01/17 01:41:08;;;;;;;0.00;0.00;;;;;;;-2.55;100.00;145642.38;4981561;28;20754;-64
2024/01/17 01:43:35;;;;;;;0.00;0.00;;;;;;;-2.50;100.00;145652.25;4975747;28;20231;-64
2024/01/17 01:46:12;;;;;;;0.00;0.00;;;;;;;-2.48;100.00;145658.38;4981558;28;20866;-64
2024/01/17 01:48:40;;;;;;;0.00;0.00;;;;;;;-2.51;100.00;145651.00;4985461;28;20223;-64
2024/01/17 01:51:06;;;;;;;0.00;0.00;;;;;;;-2.59;100.00;145632.50;4982158;28;20224;-64
2024/01/17 01:53:35;;;;;;;0.00;0.00;;;;;;;-2.58;100.00;145633.72;4978293;28;20238;-64
2024/01/17 01:56:03;;;;;;;0.00;0.00;;;;;;;-2.56;100.00;145639.91;4981995;28;20220;-64
2024/01/17 01:58:33;;;;;;;0.00;0.00;;;;;;;-2.54;100.00;145644.84;4974734;28;20235;-64
2024/01/17 02:01:00;;;;;;;0.00;0.00;;;;;;;-2.44;100.00;145668.25;4960080;28;20232;-64
2024/01/17 02:03:29;;;;;;;0.00;0.00;;;;;;;-2.52;100.00;145648.53;4970293;28;20263;-64
2024/01/17 02:05:56;;;;;;;0.00;0.00;;;;;;;-2.51;100.00;145651.00;4972869;28;20220;-64
2024/01/17 02:08:22;;;;;;;0.00;0.00;;;;;;;-2.51;100.00;145651.00;4984933;28;20250;-65
2024/01/17 02:10:49;;;;;;;0.00;0.00;;;;;;;-2.53;100.00;145646.06;4983715;28;20227;-64
2024/01/17 02:13:17;;;;;;;0.00;0.00;;;;;;;-2.56;100.00;145638.66;4980693;28;20603;-64
2024/01/17 02:15:44;;;;;;;0.00;0.00;;;;;;;-2.59;100.00;145632.50;4981609;28;20226;-64
2024/01/17 02:18:10;;;;;;;0.00;0.00;;;;;;;-2.57;100.00;145636.19;4979568;28;20216;-64
2024/01/17 02:20:38;;;;;;;0.00;0.00;;;;;;;-2.58;100.00;145633.72;4983387;28;20225;-64
2024/01/17 02:23:24;;;;;;;0.00;0.00;;;;;;;-2.63;100.00;145621.38;4981131;28;20235;-64
2024/01/17 02:25:52;;;;;;;0.00;0.00;;;;;;;-2.68;100.00;145610.31;4983584;28;20223;-64
2024/01/17 02:28:19;;;;;;;0.00;0.00;;;;;;;-2.63;100.00;145622.63;4950882;28;20237;-64
2024/01/17 02:30:46;;;;;;;0.00;0.00;;;;;;;-2.63;100.00;145622.63;4953465;28;20222;-64
2024/01/17 02:33:13;;;;;;;0.03;0.03;;;;;;;-2.60;100.00;145630.03;4930928;28;20231;-64
2024/01/17 02:35:40;;;;;;;0.00;0.00;;;;;;;-2.64;100.00;145618.91;4947858;28;20227;-64
2024/01/17 02:38:07;;;;;;;0.00;0.00;;;;;;;-2.61;100.00;145626.31;4981296;28;20230;-64
2024/01/17 02:40:34;;;;;;;0.00;0.00;;;;;;;-2.57;100.00;145637.44;4979693;28;20738;-64
2024/01/17 02:43:01;;;;;;;0.00;0.00;;;;;;;-2.57;100.00;145636.19;4969979;28;20244;-64
2024/01/17 02:45:28;;;;;;;0.00;0.00;;;;;;;-2.58;100.00;145634.97;4982121;28;20696;-64
2024/01/17 02:47:55;;;;;;;0.00;0.00;;;;;;;-2.51;100.00;145651.00;4982162;28;20713;-64
2024/01/17 02:50:22;;;;;;;0.00;0.00;;;;;;;-2.49;100.00;145654.72;4980988;28;20232;-64
2024/01/17 02:52:49;;;;;;;0.00;0.00;;;;;;;-2.48;100.00;145658.38;4982861;28;20903;-64
2024/01/17 02:55:16;;;;;;;0.00;0.00;;;;;;;-2.48;100.00;145658.38;4974135;28;20228;-64
2024/01/17 02:57:43;;;;;;;0.00;0.00;;;;;;;-2.43;100.00;145669.53;4965270;28;20263;-64
2024/01/17 03:00:12;;;;;;;0.00;0.00;;;;;;;-2.41;100.00;145674.47;4963602;28;20223;-64
2024/01/17 03:02:39;;;;;;;0.00;0.00;;;;;;;-2.33;100.00;145692.94;4965700;28;20228;-64
2024/01/17 03:05:07;;;;;;;0.00;0.00;;;;;;;-2.37;100.00;145684.31;4964021;28;20223;-64
2024/01/17 03:07:34;;;;;;;0.00;0.00;;;;;;;-2.29;100.00;145704.06;4983631;28;20605;-64
2024/01/17 03:10:00;;;;;;;0.00;0.00;;;;;;;-2.33;100.00;145694.19;4980506;28;20240;-64
2024/01/17 03:12:28;;;;;;;0.00;0.00;;;;;;;-2.35;100.00;145688.00;4978454;28;20228;-64
2024/01/17 03:14:54;;;;;;;0.00;0.00;;;;;;;-2.31;100.00;145697.88;4981518;28;20797;-64
2024/01/17 03:17:22;;;;;;;0.00;0.00;;;;;;;-2.35;100.00;145689.25;4982235;28;20239;-65
2024/01/17 03:19:49;;;;;;;0.00;0.00;;;;;;;-2.34;100.00;145691.72;4982216;28;20235;-65
2024/01/17 03:22:16;;;;;;;0.00;0.00;;;;;;;-2.32;100.00;145696.66;4980869;28;20786;-64
2024/01/17 03:24:45;;;;;;;0.00;0.00;;;;;;;-2.30;100.00;145700.34;4964332;28;20236;-64
2024/01/17 03:27:13;;;;;;;0.00;0.00;;;;;;;-2.21;100.00;145721.34;4970902;28;20311;-64
2024/01/17 03:29:41;;;;;;;0.00;0.00;;;;;;;-2.20;100.00;145723.81;4961039;28;20275;-64
2024/01/17 03:32:07;;;;;;;0.00;0.00;;;;;;;-2.15;100.00;145736.16;4957892;28;20225;-64
2024/01/17 03:34:35;;;;;;;0.00;0.00;;;;;;;-2.15;100.00;145737.38;4988181;28;20225;-64
2024/01/17 03:37:02;;;;;;;0.00;0.00;;;;;;;-2.20;100.00;145725.03;4975875;28;20239;-64
2024/01/17 03:39:29;;;;;;;0.00;0.00;;;;;;;-2.23;100.00;145718.88;4988136;28;20341;-65
2024/01/17 03:41:55;;;;;;;0.00;0.00;;;;;;;-2.16;100.00;145733.69;4985150;28;20236;-64
2024/01/17 03:44:23;;;;;;;0.00;0.00;;;;;;;-2.10;100.00;145748.44;4983937;28;20567;-65
2024/01/17 03:46:49;;;;;;;0.00;0.00;;;;;;;-2.01;100.00;145769.47;4981224;28;20228;-65
2024/01/17 03:49:16;;;;;;;0.00;0.00;;;;;;;-2.14;100.00;145738.63;4981717;28;20308;-64
2024/01/17 03:51:44;;;;;;;0.00;0.00;;;;;;;-2.16;100.00;145734.91;4982945;28;20224;-64
2024/01/17 03:54:13;;;;;;;0.00;0.00;;;;;;;-2.14;100.00;145739.84;4979715;28;20282;-64
2024/01/17 03:56:40;;;;;;;0.00;0.00;;;;;;;-2.15;100.00;145737.38;4986708;28;20221;-64
2024/01/17 03:59:08;;;;;;;0.00;0.00;;;;;;;-2.14;100.00;145739.84;4983899;28;20227;-64
2024/01/17 04:01:42;;;;;;;0.00;0.00;;;;;;;-2.07;100.00;145755.84;4985911;28;20227;-65
2024/01/17 04:04:09;;;;;;;0.00;0.00;;;;;;;-2.04;100.00;145763.25;4981588;28;20232;-65
2024/01/17 04:06:35;;;;;;;0.00;0.00;;;;;;;-2.11;100.00;145745.97;4985385;28;20232;-65
2024/01/17 04:09:03;;;;;;;0.00;0.00;;;;;;;-2.04;100.00;145763.25;4983033;28;20300;-65
2024/01/17 04:11:30;;;;;;;0.00;0.00;;;;;;;-2.01;100.00;145769.47;4976532;28;20232;-65
2024/01/17 04:13:57;;;;;;;0.00;0.00;;;;;;;-1.99;100.00;145775.59;4983542;28;20256;-65
2024/01/17 04:16:24;;;;;;;0.00;0.00;;;;;;;-2.00;100.00;145771.94;4985773;28;20253;-65
2024/01/17 04:18:50;;;;;;;0.00;0.00;;;;;;;-1.97;100.00;145780.53;4984523;28;20688;-65
2024/01/17 04:21:18;;;;;;;0.00;0.00;;;;;;;-2.01;100.00;145770.66;4980694;28;20240;-64
2024/01/17 04:23:48;;;;;;;0.00;0.00;;;;;;;-1.91;100.00;145792.88;4986616;28;20232;-64
2024/01/17 04:26:24;;;;;;;0.00;0.00;;;;;;;-1.90;100.00;145796.63;4982775;28;21324;-64
2024/01/17 04:28:52;;;;;;;0.00;0.00;;;;;;;-1.91;100.00;145792.88;4984940;28;20224;-64
2024/01/17 04:31:26;;;;;;;0.00;0.00;;;;;;;-2.02;100.00;145767.00;5171858;23;20312;-64
2024/01/17 04:33:53;;;;;;;0.00;0.00;;;;;;;-2.01;100.00;145770.66;4946570;28;20214;-64
2024/01/17 04:36:21;;;;;;;0.00;0.00;;;;;;;-1.99;100.00;145775.59;4956359;28;20268;-64
2024/01/17 04:38:47;;;;;;;0.00;0.00;;;;;;;-1.97;100.00;145780.53;4959038;28;20305;-64
2024/01/17 04:41:16;;;;;;;0.00;0.00;;;;;;;-1.90;100.00;145796.63;4956192;28;20222;-64
2024/01/17 04:43:49;;;;;;;0.00;0.00;;;;;;;-1.91;100.00;145794.13;4961361;28;20327;-64
2024/01/17 04:46:17;;;;;;;0.00;0.00;;;;;;;-1.88;100.00;145800.28;4957190;28;20243;-64
2024/01/17 04:48:48;;;;;;;0.00;0.00;;;;;;;-1.81;100.00;145817.56;4959723;28;20291;-64
2024/01/17 04:51:15;;;;;;;0.00;0.00;;;;;;;-1.74;100.00;145833.66;4960134;28;20221;-63
2024/01/17 04:53:42;;;;;;;0.00;0.00;;;;;;;-1.64;100.00;145859.56;4960841;28;20747;-64
2024/01/17 04:56:10;;;;;;;0.00;0.00;;;;;;;-1.64;100.00;145858.34;4956650;28;20237;-64
2024/01/17 04:58:37;;;;;;;0.00;0.00;;;;;;;-1.69;100.00;145847.19;4958506;28;20768;-64
2024/01/17 05:01:06;;;;;;;0.00;0.00;;;;;;;-1.67;100.00;145850.94;4961175;28;20226;-63
2024/01/17 05:03:33;;;;;;;0.00;0.00;;;;;;;-1.71;100.00;145842.25;4958955;28;20713;-64
2024/01/17 05:06:00;;;;;;;0.00;0.00;;;;;;;-1.76;100.00;145829.91;4956457;28;20248;-64
2024/01/17 05:08:27;;;;;;;0.00;0.00;;;;;;;-1.91;100.00;145792.88;4959272;28;20261;-64
2024/01/17 05:10:54;;;;;;;0.00;0.00;;;;;;;-2.07;100.00;145755.84;4960441;28;20723;-64
2024/01/17 05:13:21;;;;;;;0.00;0.00;;;;;;;-2.19;100.00;145726.28;4955316;28;20233;-64
2024/01/17 05:15:48;;;;;;;0.00;0.00;;;;;;;-2.39;100.00;145680.59;4957445;28;20214;-64
2024/01/17 05:18:16;;;;;;;0.00;0.00;;;;;;;-2.38;100.00;145683.06;4960180;28;20221;-64
2024/01/17 05:20:42;;;;;;;0.00;0.00;;;;;;;-2.29;100.00;145704.06;4955639;28;20233;-64
2024/01/17 05:23:09;;;;;;;0.00;0.00;;;;;;;-2.28;100.00;145706.53;4955666;28;20237;-64
2024/01/17 05:25:36;;;;;;;0.00;0.00;;;;;;;-2.17;100.00;145732.44;4957874;28;20230;-64
2024/01/17 05:28:04;;;;;;;0.00;0.00;;;;;;;-2.17;100.00;145732.44;4944657;28;20945;-64
2024/01/17 05:30:31;;;;;;;0.00;0.00;;;;;;;-2.09;100.00;145752.19;4955301;28;21098;-64
2024/01/17 05:32:58;;;;;;;0.00;0.00;;;;;;;-2.03;100.00;145764.53;4953078;28;20748;-64
2024/01/17 05:35:27;;;;;;;0.00;0.00;;;;;;;-2.01;100.00;145770.66;4958079;28;20264;-64
2024/01/17 05:37:53;;;;;;;0.00;0.00;;;;;;;-2.01;100.00;145770.66;4953543;28;20685;-64
2024/01/17 05:40:20;;;;;;;0.00;0.00;;;;;;;-2.05;100.00;145760.78;4956827;28;20232;-64
2024/01/17 05:42:47;;;;;;;0.00;0.00;;;;;;;-2.04;100.00;145763.25;4956026;28;20247;-64
2024/01/17 05:45:13;;;;;;;0.00;0.00;;;;;;;-1.98;100.00;145778.06;4954871;28;20214;-64
2024/01/17 05:47:40;;;;;;;0.00;0.00;;;;;;;-1.97;100.00;145779.34;4956781;28;20590;-64
2024/01/17 05:50:09;;;;;;;0.00;0.00;;;;;;;-1.94;100.00;145787.94;4955185;28;20655;-64
2024/01/17 05:52:39;;;;;;;0.00;0.00;;;;;;;-1.89;100.00;145799.09;4958970;28;20226;-64
2024/01/17 05:55:07;;;;;;;0.00;0.00;;;;;;;-1.86;100.00;145806.50;4959099;28;20698;-64
2024/01/17 05:57:33;;;;;;;0.00;0.00;;;;;;;-1.79;100.00;145822.50;4960897;28;20702;-65
2024/01/17 06:00:00;;;;;;;0.00;0.00;;;;;;;-1.72;100.00;145838.59;4955552;28;20761;-64
2024/01/17 06:02:27;;;;;;;0.00;0.00;;;;;;;-1.69;100.00;145847.19;4959336;28;20238;-64
2024/01/17 06:04:53;;;;;;;0.00;0.00;;;;;;;-1.71;100.00;145842.25;4964377;28;20572;-65
2024/01/17 06:07:20;;;;;;;0.00;0.00;;;;;;;-1.66;100.00;145854.59;4955584;28;20320;-65
2024/01/17 06:09:48;;;;;;;0.00;0.00;;;;;;;-1.58;100.00;145871.91;4957412;28;20577;-64
2024/01/17 06:12:15;;;;;;;0.00;0.00;;;;;;;-1.53;100.00;145884.25;4956782;28;20237;-64
2024/01/17 06:14:41;;;;;;;0.00;0.00;;;;;;;-1.50;100.00;145891.66;4958548;28;20237;-64
2024/01/17 06:17:08;;;;;;;0.00;0.00;;;;;;;-1.50;100.00;145892.88;4956848;28;20236;-64
2024/01/17 06:19:35;;;;;;;0.00;0.00;;;;;;;-1.41;100.00;145913.88;4955473;28;20226;-64
2024/01/17 06:22:02;;;;;;;0.00;0.00;;;;;;;-1.44;100.00;145906.47;4957946;28;20221;-64
2024/01/17 06:24:29;;;;;;;0.00;0.00;;;;;;;-1.43;100.00;145908.94;4958572;28;20237;-64
2024/01/17 06:26:57;;;;;;;0.00;0.00;;;;;;;-1.44;100.00;145906.47;4954306;28;20222;-64
2024/01/17 06:29:25;;;;;;;0.00;0.00;;;;;;;-1.40;100.00;145915.09;4957170;28;20702;-64
2024/01/17 06:31:52;;;;;;;0.00;0.00;;;;;;;-1.38;100.00;145920.03;4957592;28;20771;-65
2024/01/17 06:34:19;;;;;;;0.00;0.00;;;;;;;-1.41;100.00;145913.88;4955724;28;20233;-64
2024/01/17 06:36:45;;;;;;;0.00;0.00;;;;;;;-1.41;100.00;145913.88;4958906;28;20225;-64
2024/01/17 06:39:12;;;;;;;0.00;0.00;;;;;;;-1.36;100.00;145926.22;4945042;28;20222;-65
2024/01/17 06:41:38;;;;;;;0.00;0.00;;;;;;;-1.31;100.00;145937.31;4958375;28;20214;-65
2024/01/17 06:44:06;;;;;;;0.00;0.00;;;;;;;-1.32;100.00;145933.63;4953655;28;20232;-64
2024/01/17 06:46:33;;;;;;;0.00;0.00;;;;;;;-1.30;100.00;145938.56;4956604;28;20221;-64
2024/01/17 06:49:00;;;;;;;0.00;0.00;;;;;;;-1.25;100.00;145950.94;4955141;28;20224;-64
2024/01/17 06:51:26;;;;;;;0.00;0.00;;;;;;;-1.21;100.00;145960.81;4956439;28;20238;-64
2024/01/17 06:53:53;;;;;;;0.00;0.00;;;;;;;-1.20;100.00;145963.28;4956048;28;20222;-64
2024/01/17 06:56:20;;;;;;;0.00;0.00;;;;;;;-1.14;100.00;145976.84;4955217;28;20230;-64
2024/01/17 06:58:47;;;;;;;0.00;0.00;;;;;;;-1.11;100.00;145984.25;4956467;28;20308;-64
2024/01/17 07:01:15;;;;;;;0.00;0.00;;;;;;;-1.08;100.00;145991.66;4945706;28;20578;-63
2024/01/17 07:03:45;;;;;;;0.00;0.00;;;;;;;-1.08;100.00;145992.91;4961957;28;20237;-64
2024/01/17 07:06:12;;;;;;;0.00;0.00;;;;;;;-1.02;100.00;146006.47;4959946;28;20222;-64
2024/01/17 07:08:38;;;;;;;0.00;0.00;;;;;;;-1.01;100.00;146007.69;4961649;28;20325;-65
2024/01/17 07:11:05;;;;;;;0.00;0.00;;;;;;;-0.99;100.00;146012.63;4956752;28;20232;-64
2024/01/17 07:13:32;;;;;;;0.00;0.00;;;;;;;-0.91;100.00;146032.41;4959273;28;20229;-64
2024/01/17 07:15:58;;;;;;;0.00;0.00;;;;;;;-0.86;100.00;146043.53;4971386;28;20560;-64
2024/01/17 07:18:26;;;;;;;0.00;0.00;;;;;;;-0.80;100.00;146058.38;4962617;28;20253;-64
2024/01/17 07:20:53;;;;;;;0.00;0.00;;;;;;;-0.80;100.00;146058.38;4961703;28;20221;-64
2024/01/17 07:23:19;;;;;;;0.00;0.00;;;;;;;-0.71;100.00;146079.34;4959091;28;20318;-64
2024/01/17 07:25:46;;;;;;;0.00;0.00;;;;;;;-0.68;100.00;146088.03;4959514;28;20225;-64
2024/01/17 07:28:13;;;;;;;0.00;0.00;;;;;;;-0.62;100.00;146101.59;4955590;28;20721;-64
2024/01/17 07:30:40;;;;;;;0.00;0.00;;;;;;;-0.58;100.00;146111.47;4959077;28;20218;-64
2024/01/17 07:33:07;;;;;;;0.00;0.00;;;;;;;-0.64;100.00;146097.91;4955905;28;20223;-64
2024/01/17 07:35:35;;;;;;;0.00;0.00;;;;;;;-0.70;100.00;146083.09;4944698;28;20235;-64
2024/01/17 07:38:02;;;;;;;0.00;0.00;;;;;;;-0.77;100.00;146065.78;4958599;28;20240;-64
2024/01/17 07:40:29;;;;;;;0.00;0.00;;;;;;;-0.78;100.00;146064.53;4961359;28;20302;-64
2024/01/17 07:42:56;;;;;;;0.00;0.00;;;;;;;-0.78;100.00;146063.31;4957419;28;20276;-64
2024/01/17 07:45:22;;;;;;;0.00;0.00;;;;;;;-0.85;100.00;146047.22;4960358;28;20237;-64
2024/01/17 07:47:49;;;;;;;0.00;0.00;;;;;;;-0.84;100.00;146048.50;4958552;28;20604;-63
2024/01/17 07:50:15;;;;;;;0.00;0.00;;;;;;;-0.83;100.00;146052.16;4956368;28;20234;-63
2024/01/17 07:52:44;;;;;;;0.00;0.00;;;;;;;-0.78;100.00;146064.53;4958959;28;20593;-63
2024/01/17 07:55:10;;;;;;;0.00;0.00;;;;;;;-0.71;100.00;146079.34;4955290;28;20709;-63
2024/01/17 07:57:37;;;;;;;0.00;0.00;;;;;;;-0.75;100.00;146071.94;4960322;28;20265;-63
2024/01/17 08:00:06;;;;;;;0.00;0.00;;;;;;;-0.89;100.00;146037.34;4957462;28;20220;-62
2024/01/17 08:02:39;;;;;;;0.00;0.00;;;;;;;-0.93;100.00;146027.47;4957562;28;20689;-63
2024/01/17 08:05:06;;;;;;;0.00;0.00;;;;;;;-0.97;100.00;146018.84;4956293;28;20602;-63
2024/01/17 08:07:33;;;;;;;0.00;0.00;;;;;;;-0.98;100.00;146015.09;4958930;28;20238;-63
2024/01/17 08:10:01;;;;;;;0.00;0.00;;;;;;;-0.97;100.00;146018.84;4957062;28;20221;-63
2024/01/17 08:12:27;;;;;;;0.00;0.00;;;;;;;-0.88;100.00;146038.59;4958517;28;20319;-63
2024/01/17 08:14:54;;;;;;;0.00;0.00;;;;;;;-0.77;100.00;146065.78;4960654;28;20251;-63
2024/01/17 08:17:20;;;;;;;0.00;0.00;;;;;;;-0.67;100.00;146090.50;4959718;28;20871;-63
2024/01/17 08:19:47;;;;;;;0.00;0.00;;;;;;;-0.61;100.00;146105.31;4961820;28;20224;-63
2024/01/17 08:22:14;;;;;;;0.00;0.00;;;;;;;-0.50;100.00;146131.25;4956078;28;20226;-63
2024/01/17 08:24:41;;;;;;;0.00;0.00;;;;;;;-0.39;100.00;146157.19;4959691;28;20229;-63
2024/01/17 08:27:09;;;;;;;0.00;0.00;;;;;;;-0.23;100.00;146194.25;4960842;28;20218;-63
2024/01/17 08:29:36;;;;;;;0.00;0.00;;;;;;;-0.15;100.00;146214.03;4958798;28;20226;-63
2024/01/17 08:32:03;;;;;;;0.00;0.00;;;;;;;-0.07;100.00;146232.59;4957303;28;20709;-63
2024/01/17 08:34:29;;;;;;;0.00;0.00;;;;;;;0.03;100.00;146257.28;4958927;28;20229;-64
2024/01/17 08:36:56;;;;;;;0.00;0.00;;;;;;;0.13;100.00;146282.00;4954827;28;20585;-63
2024/01/17 08:39:23;;;;;;;0.00;0.00;;;;;;;0.09;100.00;146270.88;4957305;28;20226;-63
2024/01/17 08:41:49;;;;;;;0.00;0.00;;;;;;;-0.08;100.00;146231.34;4958454;28;20227;-63
2024/01/17 08:44:18;;;;;;;0.00;0.00;;;;;;;-0.12;100.00;146220.22;4948773;28;20284;-64
2024/01/17 08:46:45;;;;;;;0.00;0.00;;;;;;;-0.09;100.00;146227.66;4962420;28;20709;-64
2024/01/17 08:49:12;;;;;;;0.00;0.00;;;;;;;-0.03;100.00;146242.47;4957402;28;20230;-64
2024/01/17 08:51:39;;;;;;;0.00;0.00;;;;;;;0.03;100.00;146256.06;4958447;28;20237;-64
2024/01/17 08:54:05;;;;;;;0.00;0.00;;;;;;;0.08;100.00;146268.41;4956540;28;20705;-64
2024/01/17 08:56:32;;;;;;;0.00;0.00;;;;;;;0.10;100.00;146273.38;4959394;28;20851;-65
2024/01/17 08:59:01;;;;;;;0.00;0.00;;;;;;;0.14;100.00;146284.47;4956737;28;20226;-64
2024/01/17 09:01:29;;;;;;;0.00;0.00;;;;;;;0.19;100.00;146294.34;4963740;28;20240;-64
2024/01/17 09:03:56;;;;;;;0.00;0.00;;;;;;;0.20;100.00;146298.09;4955557;28;20241;-64
2024/01/17 09:06:22;;;;;;;0.00;0.00;;;;;;;0.28;100.00;146316.63;4958069;28;20237;-64
2024/01/17 09:08:49;;;;;;;0.00;0.00;;;;;;;0.35;100.00;146333.94;4961817;28;20292;-65
2024/01/17 09:11:16;;;;;;;0.00;0.00;;;;;;;0.51;100.00;146371.03;4955698;28;20241;-71
2024/01/17 09:13:46;;;;;;;0.00;0.00;;;;;;;0.48;100.00;146363.59;4963509;28;20258;-65
2024/01/17 09:16:15;;;;;;;0.00;0.00;;;;;;;0.48;100.00;146363.59;4955298;28;20241;-65
2024/01/17 09:18:43;;;;;;;0.00;0.00;;;;;;;0.49;100.00;146366.06;4956916;28;20232;-66
2024/01/17 09:21:10;;;;;;;0.00;0.00;;;;;;;0.60;100.00;146393.28;4955738;28;20233;-65
2024/01/17 09:23:37;;;;;;;0.00;0.00;;;;;;;0.53;100.00;146375.97;4961272;28;20317;-66
2024/01/17 09:26:04;;;;;;;0.00;0.00;;;;;;;0.56;100.00;146383.38;4953975;28;20250;-66
2024/01/17 09:28:31;;;;;;;0.00;0.00;;;;;;;0.55;100.00;146382.13;4957304;28;20226;-65
2024/01/17 09:30:59;;;;;;;0.00;0.00;;;;;;;0.63;100.00;146399.44;4953455;28;20293;-66
2024/01/17 09:33:27;;;;;;;0.00;0.00;;;;;;;0.59;100.00;146392.03;4958529;28;21064;-66
2024/01/17 09:35:55;;;;;;;0.00;0.00;;;;;;;0.62;100.00;146398.22;4959517;28;20223;-66
2024/01/17 09:38:22;;;;;;;0.00;0.00;;;;;;;0.46;100.00;146358.66;4950144;28;20733;-62
2024/01/17 09:40:49;;;;;;;0.00;0.00;;;;;;;0.32;100.00;146325.28;4955419;28;20229;-65
2024/01/17 09:43:16;;;;;;;0.00;0.00;;;;;;;0.36;100.00;146335.19;4959634;28;20245;-65
2024/01/17 09:45:44;;;;;;;0.00;0.00;;;;;;;0.38;100.00;146340.13;4956640;28;20222;-65
2024/01/17 09:48:12;;;;;;;0.00;0.00;;;;;;;0.44;100.00;146354.97;4952084;28;20277;-65
2024/01/17 09:50:39;;;;;;;0.00;0.00;;;;;;;0.49;100.00;146367.34;4956768;28;20250;-65
2024/01/17 09:53:12;;;;;;;0.00;0.00;;;;;;;0.50;100.00;146368.56;4954328;28;20248;-65
2024/01/17 09:55:41;;;;;;;0.00;0.00;;;;;;;0.46;100.00;146358.66;4957871;28;20263;-65
2024/01/17 09:58:10;;;;;;;0.00;0.00;;;;;;;0.28;100.00;146317.88;4956141;28;20685;-65
2024/01/17 10:00:37;;;;;;;0.00;0.00;;;;;;;0.36;100.00;146335.19;4958244;28;20599;-65
2024/01/17 10:03:05;;;;;;;0.00;0.00;;;;;;;0.62;100.00;146396.97;4950852;28;20222;-60
2024/01/17 10:05:33;;;;;;;0.00;0.00;;;;;;;1.00;100.00;146489.78;4957023;28;20498;-60
2024/01/17 10:08:00;;;;;;;0.00;0.00;;;;;;;0.82;100.00;146446.44;4952444;28;20228;-64
2024/01/17 10:10:28;;;;;;;0.00;0.00;;;;;;;0.82;100.00;146445.22;4956505;28;20507;-64
2024/01/17 10:12:55;;;;;;;0.00;0.00;;;;;;;0.77;100.00;146432.88;4959757;28;20308;-62
2024/01/17 10:15:23;;;;;;;0.00;0.00;;;;;;;0.77;100.00;146432.88;4955559;28;20254;-62
2024/01/17 10:17:49;;;;;;;0.00;0.00;;;;;;;0.81;100.00;146443.97;4948275;28;20206;-62
2024/01/17 10:20:17;;;;;;;0.00;0.00;;;;;;;0.81;100.00;146442.75;4957746;28;20953;-62
2024/01/17 10:22:46;;;;;;;0.00;0.00;;;;;;;0.80;100.00;146440.28;4958279;28;20218;-62
2024/01/17 10:25:13;;;;;;;0.00;0.00;;;;;;;0.82;100.00;146446.44;4958771;28;20220;-62
2024/01/17 10:27:42;;;;;;;0.00;0.00;;;;;;;0.89;100.00;146462.56;4957669;28;20222;-62
2024/01/17 10:30:11;;;;;;;0.00;0.00;;;;;;;0.93;100.00;146471.19;4953686;28;20221;-62
2024/01/17 10:32:38;;;;;;;0.00;0.00;;;;;;;0.95;100.00;146477.41;4959620;28;20226;-62
2024/01/17 10:35:05;;;;;;;0.00;0.00;;;;;;;0.95;100.00;146477.41;4954167;28;20221;-63
2024/01/17 10:37:33;;;;;;;0.00;0.00;;;;;;;0.77;100.00;146432.88;4956172;28;20770;-63
2024/01/17 10:40:13;;;;;;;0.00;0.00;;;;;;;0.75;100.00;146427.91;4954482;28;20222;-63
2024/01/17 10:42:41;;;;;;;0.00;0.00;;;;;;;0.78;100.00;146435.34;4959108;28;20233;-63
2024/01/17 10:45:09;;;;;;;0.00;0.00;;;;;;;0.78;100.00;146436.56;4947185;28;20570;-63
2024/01/17 10:47:36;;;;;;;0.00;0.00;;;;;;;0.88;100.00;146460.09;4950206;28;20384;-63
2024/01/17 10:50:04;;;;;;;0.00;0.00;;;;;;;0.86;100.00;146455.13;4954753;28;20592;-63
2024/01/17 10:52:40;;;;;;;0.00;0.00;;;;;;;0.90;100.00;146463.78;4957234;28;20340;-63
2024/01/17 10:55:10;;;;;;;0.00;0.00;;;;;;;0.83;100.00;146447.72;4956127;28;20225;-63
2024/01/17 10:57:42;;;;;;;0.00;0.00;;;;;;;0.77;100.00;146434.06;4955620;28;20662;-63
2024/01/17 11:00:16;;;;;;;0.00;0.00;;;;;;;0.69;100.00;146415.53;4957162;28;20447;-63
2024/01/17 11:02:44;;;;;;;0.00;0.00;;;;;;;0.58;100.00;146389.56;4958166;28;20232;-63
2024/01/17 11:05:12;;;;;;;0.00;0.00;;;;;;;0.62;100.00;146398.22;4954002;28;20305;-63
2024/01/17 11:07:40;;;;;;;0.00;0.00;;;;;;;0.55;100.00;146380.91;4958932;28;20213;-63
2024/01/17 11:10:09;;;;;;;0.00;0.00;;;;;;;0.54;100.00;146379.66;4928156;28;20233;-63
2024/01/17 11:12:38;;;;;;;0.00;0.00;;;;;;;0.64;100.00;146401.91;4949777;28;20351;-62
2024/01/17 11:15:07;;;;;;;2.13;1.33;;;;;;;0.77;100.00;146434.06;4954775;28;20215;-62
2024/01/17 11:17:35;;;;;;;0.00;0.00;;;;;;;0.72;100.00;146421.72;4956559;28;20230;-62
2024/01/17 11:20:07;;;;;;;0.00;0.00;;;;;;;0.76;100.00;146431.59;4954508;28;20220;-63